Latest Weather Observations for Coober Pedy Airport

IDS60801

Issued at 8:05 pm CST Wednesday 20 August 2014 (issued every 30 minutes, with the page automatically refreshed every 10 minutes)

About weather observations | Map of weather stations | Latest weather observations for SA | Other Formats
Station Details ID: 016090 Name: COOBER PEDY AIRPORT Lat: -29.03 Lon: 134.72 Height: 225.0 m
Data from the previous 72 hours. | See also: Recent months at Coober Pedy Airport
Date/Time
CST
Temp
°C
App
Temp
°C
Dew
Point
Rel
Hum
%
Delta-T
°C
Wind Press
QNH
hPa
Press
MSL
hPa
Rain
since 9 am
mm
Dir
 
Spd
km/h
Gust
km/h
Spd
kts
Gust
kts
20/08:00pm 12.2 7.2 -1.3 39 5.4 ESE 15 17 8 9 1023.2 1023.0 0.0
20/07:30pm 12.8 8.1 -1.5 37 5.8 SE 13 13 7 7 1023.0 1022.8 0.0
20/07:00pm 13.7 9.0 -1.5 35 6.2 SE 13 15 7 8 1022.6 1022.4 0.0
20/06:30pm 15.0 11.1 -1.5 32 6.8 SE 9 11 5 6 1022.3 1022.1 0.0
20/06:00pm 16.6 13.3 -1.0 30 7.4 E 6 9 3 5 1021.9 1021.8 0.0
20/05:30pm 17.1 12.9 -1.1 29 7.7 ESE 11 17 6 9 1021.6 1021.5 0.0
20/05:00pm 17.4 13.2 -0.8 29 7.8 SE 11 19 6 10 1021.5 1021.4 0.0
20/04:30pm 17.6 13.4 -0.6 29 7.8 E 11 15 6 8 1021.3 1021.2 0.0
20/04:00pm 17.7 13.2 -0.5 29 7.9 ESE 13 20 7 11 1021.2 1021.1 0.0
20/03:30pm 18.0 13.5 -0.3 29 8.0 E 13 24 7 13 1021.1 1021.0 0.0
20/03:00pm 17.6 13.4 -0.6 29 7.8 E 11 19 6 10 1021.2 1021.1 0.0
20/02:30pm 17.6 13.1 -0.2 30 7.7 SE 13 22 7 12 1021.4 1021.3 0.0
20/02:00pm 17.6 12.8 0.3 31 7.6 ENE 15 24 8 13 1021.6 1021.5 0.0
20/01:30pm 17.3 12.8 0.0 31 7.5 ENE 13 22 7 12 1022.3 1022.1 0.0
20/01:00pm 16.8 12.3 0.0 32 7.3 E 13 26 7 14 1022.8 1022.6 0.0
20/12:30pm 17.0 12.3 0.6 33 7.2 ENE 15 19 8 10 1023.7 1023.6 0.0
20/12:00pm 15.9 11.5 0.5 35 6.7 NE 13 28 7 15 1024.3 1024.2 0.0
20/11:30am 15.2 10.4 0.2 36 6.4 NE 15 22 8 12 1024.8 1024.7 0.0
20/11:00am 15.2 10.1 0.6 37 6.3 NNE 17 22 9 12 1025.0 1024.9 0.0
20/10:30am 14.2 8.7 0.5 39 5.8 ENE 19 24 10 13 1025.1 1025.0 0.0
20/10:00am 13.7 8.3 1.0 42 5.5 ENE 19 26 10 14 1025.2 1025.1 0.0
20/09:30am 12.1 6.4 0.5 45 4.8 ENE 20 26 11 14 1025.3 1025.2 0.0
20/09:00am 11.3 6.2 0.7 48 4.4 ENE 17 22 9 12 1025.2 1025.1 0.0
20/08:30am 10.6 5.9 0.9 51 4.0 ENE 15 19 8 10 1024.8 1024.7 0.0
20/08:00am 8.4 4.0 0.4 57 3.2 ENE 13 15 7 8 1024.4 1024.3 0.0
20/07:30am 6.5 1.6 -0.2 62 2.6 ENE 15 17 8 9 1024.2 1024.1 0.0
20/07:00am 6.6 1.1 0.3 64 2.5 ENE 19 20 10 11 1023.9 1023.8 0.0
20/06:30am 5.6 0.3 -0.7 64 2.4 E 17 17 9 9 1023.7 1023.6 0.0
20/06:00am 5.1 -0.6 -0.9 65 2.3 E 19 20 10 11 1023.4 1023.2 0.0
20/05:30am 5.0 -0.4 -1.4 63 2.4 E 17 17 9 9 1023.2 1023.0 0.0
20/05:00am 6.3 1.7 -0.9 60 2.8 ENE 13 15 7 8 1023.0 1022.8 0.0
20/04:30am 6.2 1.2 -1.0 60 2.7 NE 15 17 8 9 1023.0 1022.8 0.0
20/04:00am 6.1 0.8 -0.8 61 2.6 ENE 17 17 9 9 1022.9 1022.7 0.0
20/03:30am 6.7 1.3 -1.0 58 2.9 NE 17 19 9 10 1022.9 1022.7 0.0
20/03:00am 7.1 2.2 -0.6 58 3.0 NE 15 17 8 9 1023.0 1022.8 0.0
20/02:30am 6.8 2.3 -0.6 59 2.9 NNE 13 15 7 8 1023.1 1022.9 0.0
20/02:00am 7.2 2.6 -1.0 56 3.2 NNE 13 15 7 8 1023.3 1023.1 0.0
20/01:30am 7.7 2.8 -0.3 57 3.1 NNE 15 17 8 9 1023.5 1023.4 0.0
20/01:00am 7.5 2.9 -0.7 56 3.2 NNE 13 15 7 8 1023.6 1023.5 0.0
20/12:30am 8.0 2.7 -0.5 55 3.3 NE 17 17 9 9 1023.7 1023.6 0.0
20/12:00am 7.8 3.6 -1.2 53 3.5 NE 11 13 6 7 1023.9 1023.8 0.0
 
Date/Time
CST
Temp
°C
App
Temp
°C
Dew
Point
Rel
Hum
%
Delta-T
°C
Wind Press
QNH
hPa
Press
MSL
hPa
Rain
since 9 am
mm
Dir
 
Spd
km/h
Gust
km/h
Spd
kts
Gust
kts
19/11:30pm 8.3 3.7 -1.2 51 3.7 ENE 13 17 7 9 1024.0 1023.9 0.0
19/11:00pm 9.7 4.8 -0.5 49 4.1 E 15 17 8 9 1023.8 1023.7 0.0
19/10:30pm 9.8 4.9 -0.7 48 4.2 E 15 17 8 9 1023.7 1023.6 0.0
19/10:00pm 10.1 4.8 -0.7 47 4.3 ESE 17 19 9 10 1023.7 1023.6 0.0
19/09:30pm 10.4 5.5 -0.7 46 4.4 E 15 17 8 9 1023.7 1023.6 0.0
19/09:00pm 11.2 6.3 -0.6 44 4.8 ESE 15 17 8 9 1023.6 1023.5 0.0
19/08:30pm 11.7 6.4 -0.8 42 5.1 ESE 17 17 9 9 1023.5 1023.4 0.0
19/08:00pm 12.2 7.3 -0.6 41 5.3 ESE 15 17 8 9 1023.3 1023.1 0.0
19/07:30pm 13.3 8.4 -0.7 38 5.8 E 15 17 8 9 1023.0 1022.8 0.0
19/07:00pm 14.0 9.1 -0.8 36 6.2 E 15 17 8 9 1022.8 1022.6 0.0
19/06:30pm 15.3 10.8 -0.4 34 6.6 E 13 15 7 8 1022.6 1022.4 0.0
19/06:00pm 16.6 11.7 -0.6 31 7.3 E 15 20 8 11 1022.4 1022.2 0.0
19/05:30pm 17.4 12.9 -0.3 30 7.7 E 13 20 7 11 1022.2 1022.0 0.0
19/05:00pm 17.7 13.2 -0.1 30 7.8 E 13 20 7 11 1022.1 1021.9 0.0
19/04:30pm 17.9 13.4 -0.4 29 7.9 E 13 17 7 9 1021.9 1021.8 0.0
19/04:00pm 18.6 13.8 0.2 29 8.2 ENE 15 20 8 11 1022.2 1022.0 0.0
19/03:30pm 18.5 14.8 0.2 29 8.1 NE 9 15 5 8 1022.4 1022.2 0.0
19/03:00pm 18.1 14.0 -0.2 29 8.0 NNE 11 17 6 9 1022.4 1022.2 0.0
19/02:30pm 17.5 14.0 -1.2 28 7.9 NE 7 17 4 9 1022.8 1022.6 0.0
19/02:00pm 17.7 13.6 -0.1 30 7.8 ENE 11 19 6 10 1022.9 1022.7 0.0
19/01:30pm 16.9 12.4 -0.3 31 7.4 ENE 13 19 7 10 1023.2 1023.0 0.0
19/01:00pm 17.4 13.8 0.6 32 7.4 NE 9 20 5 11 1023.8 1023.7 0.0
19/12:30pm 17.0 13.7 0.2 32 7.3 N 7 15 4 8 1024.5 1024.4 0.0
19/12:00pm 16.4 11.6 0.5 34 6.9 ENE 15 22 8 12 1025.0 1024.9 0.0
19/11:30am 16.0 11.6 0.6 35 6.7 NNE 13 20 7 11 1025.4 1025.3 0.0
19/11:00am 15.8 11.2 1.5 38 6.4 ENE 15 20 8 11 1025.8 1025.7 0.0
19/10:30am 14.8 9.8 1.3 40 5.9 NE 17 22 9 12 1026.0 1025.9 0.0
19/10:00am 14.0 9.9 2.0 44 5.3 NE 13 20 7 11 1026.2 - 0.0
19/09:30am 13.3 8.8 1.9 46 5.0 NE 15 20 8 11 1026.3 1026.2 0.0
19/09:00am 12.6 8.5 2.2 49 4.5 NE 13 15 7 8 1026.0 1025.9 0.0
19/08:30am 11.2 6.7 2.0 53 3.9 ENE 15 17 8 9 1025.8 1025.7 0.0
19/08:00am 8.9 3.9 1.3 59 3.2 E 17 19 9 10 1025.6 - 0.0
19/07:30am 8.0 4.1 1.4 63 2.7 NNE 11 13 6 7 1025.1 1025.0 0.0
19/07:00am 6.2 2.5 0.1 65 2.4 NNE 9 11 5 6 1024.8 - 0.0
19/06:30am 7.2 4.0 0.6 63 2.6 ENE 7 15 4 8 1024.4 1024.3 0.0
19/06:00am 8.4 5.0 1.8 63 2.7 ENE 9 11 5 6 1024.2 1024.1 0.0
19/05:30am 6.7 3.1 0.6 65 2.4 E 9 11 5 6 1024.2 1024.1 0.0
19/05:00am 7.3 3.3 0.7 63 2.7 ESE 11 15 6 8 1024.1 - 0.0
19/04:30am 8.1 4.6 1.5 63 2.7 E 9 11 5 6 1024.1 1024.0 0.0
19/04:00am 7.7 4.2 1.3 64 2.6 E 9 13 5 7 1024.2 - 0.0
19/03:30am 7.6 3.2 0.3 60 2.9 E 13 15 7 8 1024.2 1024.1 0.0
19/03:00am 8.3 4.8 1.5 62 2.8 ESE 9 11 5 6 1024.2 1024.1 0.0
19/02:30am 8.0 3.7 1.2 62 2.8 ESE 13 13 7 7 1024.4 1024.3 0.0
19/02:00am 7.5 3.1 0.3 60 2.9 ESE 13 17 7 9 1024.7 - 0.0
19/01:30am 7.7 3.7 0.2 59 3.0 NE 11 13 6 7 1024.7 1024.6 0.0
19/01:00am 9.2 5.3 1.4 58 3.3 ENE 11 13 6 7 1024.8 - 0.0
19/12:30am 8.5 4.8 0.2 56 3.3 ENE 9 11 5 6 1024.9 1024.8 0.0
19/12:00am 8.8 4.4 0.3 55 3.4 E 13 17 7 9 1024.9 1024.8 0.0
 
Date/Time
CST
Temp
°C
App
Temp
°C
Dew
Point
Rel
Hum
%
Delta-T
°C
Wind Press
QNH
hPa
Press
MSL
hPa
Rain
since 9 am
mm
Dir
 
Spd
km/h
Gust
km/h
Spd
kts
Gust
kts
18/11:30pm 9.8 5.8 0.7 53 3.7 E 11 13 6 7 1025.1 1025.0 0.0
18/11:00pm 10.4 6.0 0.4 50 4.1 E 13 13 7 7 1025.1 - 0.0
18/10:30pm 9.6 5.1 -0.6 49 4.1 E 13 15 7 8 1024.9 1024.8 0.0
18/10:00pm 10.9 6.5 0.3 48 4.4 E 13 15 7 8 1024.8 - 0.0
18/09:30pm 11.4 7.7 0.2 46 4.6 E 9 11 5 6 1024.8 1024.7 0.0
18/09:00pm 11.4 7.7 0.2 46 4.6 E 9 9 5 5 1024.7 1024.6 0.0
18/08:30pm 12.1 8.4 -0.1 43 5.0 ESE 9 11 5 6 1024.7 1024.6 0.0
18/08:00pm 12.2 7.7 -0.6 41 5.3 ESE 13 15 7 8 1024.5 - 0.0
18/07:30pm 13.7 9.6 0.0 39 5.8 SSE 11 13 6 7 1024.3 1024.2 0.0
18/07:00pm 14.1 9.9 -0.7 36 6.2 S 11 11 6 6 1023.9 - 0.0
18/06:30pm 15.1 11.8 -0.2 35 6.5 SSE 7 9 4 5 1023.8 1023.7 0.0
18/06:00pm 16.0 12.3 0.2 34 6.8 SSW 9 13 5 7 1023.5 1023.4 0.0
18/05:30pm 16.5 13.2 -0.2 32 7.2 S 7 13 4 7 1023.3 1023.1 0.0
18/05:00pm 16.8 12.7 -0.4 31 7.4 SSE 11 20 6 11 1023.1 - 0.0
18/04:30pm 17.3 13.2 0.0 31 7.5 SSE 11 15 6 8 1023.1 1022.9 0.0
18/04:00pm 17.1 13.1 0.3 32 7.4 SE 11 20 6 11 1023.0 - 0.0
18/03:30pm 17.1 13.8 0.3 32 7.3 SE 7 13 4 7 1023.1 1022.9 0.0
18/03:00pm 17.0 12.6 0.2 32 7.3 S 13 24 7 13 1023.2 1023.0 0.0
18/02:30pm 16.6 11.8 0.3 33 7.1 SW 15 22 8 12 1023.2 1023.0 0.0
18/02:00pm 16.1 11.4 0.7 35 6.8 S 15 24 8 13 1023.5 - 0.0
18/01:30pm 16.2 11.2 1.1 36 6.6 SE 17 22 9 12 1023.8 1023.7 0.0
18/01:00pm 15.8 11.5 1.2 37 6.5 S 13 26 7 14 1024.2 - 0.0
18/12:30pm 15.3 11.8 1.1 38 6.2 SSE 9 20 5 11 1024.6 1024.5 0.0
18/12:00pm 14.5 10.6 1.1 40 5.8 SSE 11 24 6 13 1025.3 1025.2 0.0
18/11:30am 14.6 11.2 1.8 42 5.6 S 9 19 5 10 1025.7 1025.6 0.0
18/11:00am 14.5 10.4 2.4 44 5.4 SE 13 26 7 14 1026.1 - 0.0
18/10:30am 14.0 9.1 2.3 45 5.2 E 17 20 9 11 1026.5 1026.4 0.0
18/10:00am 13.5 9.5 3.0 49 4.7 ESE 13 19 7 10 1026.5 - 0.0
18/09:30am 11.7 7.7 2.7 54 3.9 ESE 13 17 7 9 1026.4 1026.3 0.0
18/09:00am 10.6 6.5 2.4 57 3.5 SE 13 17 7 9 1026.3 1026.2 0.0
18/08:30am 9.3 4.8 2.4 62 2.9 SE 15 19 8 10 1026.1 1026.0 0.0
18/08:00am 7.1 3.3 1.6 68 2.3 SSE 11 13 6 7 1025.9 - 0.0
18/07:30am 5.3 1.0 0.7 72 1.8 SSE 13 15 7 8 1025.6 1025.5 0.0
18/07:00am 4.4 -0.4 0.0 73 1.7 S 15 17 8 9 1025.1 - 0.0
18/06:30am 4.6 -0.2 0.2 73 1.7 S 15 17 8 9 1024.9 1024.8 0.0
18/06:00am 5.3 0.2 0.5 71 1.9 SSE 17 19 9 10 1024.5 1024.4 0.0
18/05:30am 5.6 0.5 0.6 70 2.0 SE 17 19 9 10 1024.2 1024.1 0.0
18/05:00am 5.3 0.1 0.3 70 2.0 SSE 17 17 9 9 1024.1 - 0.0
18/04:30am 4.9 0.1 -0.1 70 1.9 S 15 15 8 8 1024.2 1024.1 0.0
18/04:00am 4.7 0.2 -0.3 70 1.9 S 13 15 7 8 1024.1 - 0.0
18/03:30am 4.9 0.0 -0.5 68 2.0 SSW 15 15 8 8 1024.1 1024.0 0.0
18/03:00am 6.2 1.4 0.1 65 2.4 S 15 17 8 9 1024.2 1024.1 0.0
18/02:30am 6.6 1.8 0.3 64 2.5 S 15 17 8 9 1024.4 1024.3 0.0
18/02:00am 7.7 2.6 0.7 61 2.8 SSE 17 19 9 10 1024.3 - 0.0
18/01:30am 7.5 2.3 0.0 59 3.0 S 17 20 9 11 1024.5 1024.4 0.0
18/01:00am 7.7 2.9 0.0 58 3.1 S 15 17 8 9 1024.7 - 0.0
18/12:30am 7.3 2.8 -0.4 58 3.0 S 13 15 7 8 1024.8 1024.7 0.0
18/12:00am 7.6 3.5 -0.4 57 3.1 S 11 13 6 7 1024.9 1024.8 0.0
 
Date/Time
CST
Temp
°C
App
Temp
°C
Dew
Point
Rel
Hum
%
Delta-T
°C
Wind Press
QNH
hPa
Press
MSL
hPa
Rain
since 9 am
mm
Dir
 
Spd
km/h
Gust
km/h
Spd
kts
Gust
kts
17/11:30pm 7.4 3.3 -0.3 58 3.0 S 11 13 6 7 1024.9 1024.8 0.0
17/11:00pm 7.8 3.6 -0.9 54 3.4 SSW 11 13 6 7 1025.0 - 0.0
17/10:30pm 9.1 4.6 0.0 53 3.6 S 13 15 7 8 1024.9 1024.8 0.0
17/10:00pm 9.1 4.6 -0.5 51 3.8 S 13 15 7 8 1024.8 - 0.0
17/09:30pm 9.5 4.6 -0.4 50 3.9 S 15 17 8 9 1024.6 1024.5 0.0
17/09:00pm 10.3 5.4 -0.2 48 4.2 S 15 17 8 9 1024.5 1024.4 0.0
17/08:30pm 10.4 5.5 -0.4 47 4.3 S 15 15 8 8 1024.4 1024.3 0.0

Other Formats:

Comma delimited format used in spreadsheet applications
http://www.bom.gov.au/fwo/IDS60801/IDS60801.95458.axf

JavaScript Object Notation format (JSON) in row-major order
http://www.bom.gov.au/fwo/IDS60801/IDS60801.95458.json